createdAt,value
2022-08-19T00:01:38.633Z,11.68
2022-08-19T00:07:40.544Z,13.07
2022-08-19T00:13:42.460Z,13.05
2022-08-19T00:19:44.268Z,9.45
2022-08-19T00:25:48.748Z,13.07
2022-08-19T00:31:54.611Z,11.55
2022-08-19T00:37:57.196Z,8.82
2022-08-19T00:44:05.539Z,10.73
2022-08-19T00:50:09.536Z,12.25
2022-08-19T00:56:12.007Z,10.32
2022-08-19T01:02:13.798Z,9.30
2022-08-19T01:08:18.237Z,10.77
2022-08-19T01:14:20.839Z,10.23
2022-08-19T01:20:24.422Z,11.40
2022-08-19T01:26:27.540Z,11.00
2022-08-19T01:32:33.939Z,11.32
2022-08-19T01:38:44.099Z,10.10
2022-08-19T01:44:46.801Z,10.05
2022-08-19T01:50:49.102Z,10.23
2022-08-19T01:56:54.272Z,11.43
2022-08-19T02:02:56.037Z,10.45
2022-08-19T02:08:58.533Z,9.15
2022-08-19T02:15:00.979Z,10.95
2022-08-19T02:21:02.715Z,9.48
2022-08-19T02:27:05.864Z,10.13
2022-08-19T02:33:07.624Z,9.38
2022-08-19T02:39:10.018Z,9.43
2022-08-19T02:45:12.078Z,8.48
2022-08-19T02:51:21.814Z,10.05
2022-08-19T02:57:23.896Z,10.52
2022-08-19T03:03:25.893Z,7.88
2022-08-19T03:09:27.725Z,10.00
2022-08-19T03:15:29.589Z,9.75
2022-08-19T03:21:33.754Z,12.90
2022-08-19T03:27:35.995Z,10.38
2022-08-19T03:33:39.778Z,8.52
2022-08-19T03:39:43.315Z,9.10
2022-08-19T03:45:45.102Z,9.25
2022-08-19T03:51:49.141Z,10.88
2022-08-19T03:57:50.883Z,9.13
2022-08-19T04:03:53.486Z,9.38
2022-08-19T04:09:56.275Z,9.88
2022-08-19T04:15:58.007Z,8.38
2022-08-19T04:21:59.820Z,10.30
2022-08-19T04:28:01.554Z,10.27
2022-08-19T04:34:08.166Z,9.13
2022-08-19T04:40:28.743Z,9.00
2022-08-19T04:46:40.539Z,30.77
2022-08-19T04:52:54.442Z,21.90
2022-08-19T04:58:57.907Z,27.20
2022-08-19T05:05:01.591Z,31.30
2022-08-19T05:11:14.166Z,19.33
2022-08-19T05:17:37.498Z,22.27
2022-08-19T05:23:38.157Z,28.60
2022-08-19T05:29:40.212Z,18.90
2022-08-19T05:35:42.231Z,23.13
2022-08-19T05:41:45.360Z,28.10
2022-08-19T05:47:47.147Z,33.65
2022-08-19T05:53:48.914Z,27.05
2022-08-19T05:59:57.631Z,27.40
2022-08-19T06:06:01.241Z,23.80
2022-08-19T06:12:04.039Z,32.33
2022-08-19T06:18:05.821Z,26.65
2022-08-19T06:24:10.280Z,33.15
2022-08-19T06:30:13.424Z,29.27
2022-08-19T06:36:35.050Z,22.10
2022-08-19T06:42:36.873Z,21.35
2022-08-19T06:48:45.682Z,23.15
2022-08-19T06:54:56.083Z,29.33
2022-08-19T07:01:04.454Z,25.42
2022-08-19T07:07:21.005Z,27.10
2022-08-19T07:13:23.312Z,23.92
2022-08-19T07:19:30.399Z,23.90
2022-08-19T07:25:33.426Z,23.60
2022-08-19T07:31:38.261Z,19.88
2022-08-19T07:37:45.377Z,23.85
2022-08-19T07:43:48.201Z,22.23
2022-08-19T07:49:49.915Z,29.27
2022-08-19T08:13:09.170Z,31.88
2022-08-19T08:19:25.778Z,24.58
2022-08-19T08:25:27.813Z,23.08
2022-08-19T08:31:35.124Z,23.77
2022-08-19T08:37:37.731Z,34.80
2022-08-19T08:43:44.628Z,27.02
2022-08-19T08:50:15.607Z,25.85
2022-08-19T08:56:18.439Z,26.50
2022-08-19T09:02:20.765Z,22.13
2022-08-19T09:08:51.331Z,25.27
2022-08-19T09:15:05.640Z,20.65
2022-08-19T09:21:08.791Z,23.13
2022-08-19T09:27:18.403Z,26.70
2022-08-19T09:33:21.004Z,27.15
2022-08-19T09:39:23.029Z,22.08
2022-08-19T09:45:24.795Z,32.15
2022-08-19T09:51:29.412Z,23.98
2022-08-19T09:57:31.164Z,21.40
2022-08-19T10:03:34.219Z,20.15
2022-08-19T10:09:36.046Z,20.95
2022-08-19T10:15:47.571Z,19.48
2022-08-19T10:21:49.981Z,24.63
2022-08-19T10:27:51.905Z,19.40
2022-08-19T10:33:59.245Z,21.45
2022-08-19T10:40:07.029Z,17.85
2022-08-19T10:46:13.754Z,29.05
2022-08-19T10:52:39.023Z,19.73
2022-08-19T10:58:42.774Z,25.67
2022-08-19T11:04:44.478Z,20.85
2022-08-19T11:10:50.552Z,23.60
2022-08-19T11:16:56.871Z,22.77
2022-08-19T11:22:58.592Z,22.92
2022-08-19T11:29:01.617Z,20.77
2022-08-19T11:35:03.614Z,31.73
2022-08-19T11:41:10.814Z,20.40
2022-08-19T11:47:12.547Z,36.78
2022-08-19T11:53:14.249Z,73.68
2022-08-19T11:59:16.893Z,95.88
2022-08-19T12:05:18.872Z,90.15
2022-08-19T12:11:21.091Z,74.30
2022-08-19T12:17:23.427Z,74.03
2022-08-19T12:23:25.113Z,66.78
2022-08-19T12:29:30.362Z,64.40
2022-08-19T12:35:32.923Z,60.63
2022-08-19T12:41:34.598Z,60.63
2022-08-19T12:47:38.021Z,58.92
2022-08-19T12:53:43.457Z,53.80
2022-08-19T12:59:45.754Z,45.85
2022-08-19T13:05:47.417Z,38.38
2022-08-19T13:11:49.121Z,36.08
2022-08-19T13:17:52.798Z,38.80
2022-08-19T13:23:55.310Z,29.08
2022-08-19T13:30:15.807Z,31.70
2022-08-19T13:36:17.493Z,27.67
2022-08-19T13:42:20.272Z,26.08
2022-08-19T13:48:22.798Z,19.08
2022-08-19T13:54:24.614Z,20.58
2022-08-19T14:00:29.106Z,20.52
2022-08-19T14:06:30.910Z,24.70
2022-08-19T14:12:33.194Z,17.17
2022-08-19T14:18:35.085Z,15.50
2022-08-19T14:24:40.803Z,21.33
2022-08-19T14:30:49.670Z,16.63
2022-08-19T14:36:56.914Z,15.02
2022-08-19T14:43:04.958Z,19.10
2022-08-19T14:49:09.372Z,24.92
2022-08-19T14:55:11.546Z,21.13
2022-08-19T15:01:14.199Z,19.45
2022-08-19T15:07:15.985Z,17.40
2022-08-19T15:13:17.917Z,14.57
2022-08-19T15:19:19.682Z,30.00
2022-08-19T15:25:21.997Z,47.50
2022-08-19T15:31:28.537Z,63.28
2022-08-19T15:37:30.901Z,59.83
2022-08-19T15:43:33.400Z,59.90
2022-08-19T15:49:35.142Z,61.22
2022-08-19T15:55:43.779Z,67.30
2022-08-19T16:02:03.861Z,61.60
2022-08-19T16:08:06.602Z,65.78
2022-08-19T16:14:09.567Z,67.97
2022-08-19T16:20:11.634Z,79.68
2022-08-19T16:26:15.457Z,93.88
2022-08-19T16:32:17.221Z,79.00
2022-08-19T16:38:18.989Z,83.63
2022-08-19T16:44:21.303Z,66.20
2022-08-19T16:50:39.311Z,63.40
2022-08-19T16:56:46.006Z,60.40
2022-08-19T17:02:47.784Z,71.65
2022-08-19T17:08:51.542Z,57.35
2022-08-19T17:14:53.278Z,62.85
2022-08-19T17:20:56.897Z,75.53
2022-08-19T17:26:58.641Z,86.75
2022-08-19T17:33:00.450Z,72.90
2022-08-19T17:39:04.399Z,71.28
2022-08-19T17:45:06.823Z,62.85
2022-08-19T17:51:33.064Z,88.95
2022-08-19T17:57:34.758Z,74.60
2022-08-19T18:03:36.498Z,77.53
2022-08-19T18:09:42.202Z,61.20
2022-08-19T18:15:44.562Z,61.35
2022-08-19T18:21:47.109Z,56.40
2022-08-19T18:27:49.049Z,58.45
2022-08-19T18:33:52.745Z,60.97
2022-08-19T18:40:13.207Z,55.33
2022-08-19T18:46:34.970Z,78.30
2022-08-19T18:52:40.035Z,61.53
2022-08-19T18:58:42.702Z,62.00
2022-08-19T19:04:45.689Z,65.47
2022-08-19T19:10:47.808Z,60.30
2022-08-19T19:16:52.868Z,57.53
2022-08-19T19:22:56.018Z,51.22
2022-08-19T19:29:00.026Z,55.75
2022-08-19T19:35:01.903Z,51.47
2022-08-19T19:41:04.762Z,52.42
2022-08-19T19:47:07.042Z,56.90
2022-08-19T19:53:08.773Z,51.00
2022-08-19T19:59:10.669Z,51.13
2022-08-19T20:05:13.340Z,44.97
2022-08-19T20:11:32.997Z,44.03
2022-08-19T20:17:42.415Z,50.03
2022-08-19T20:23:44.334Z,50.70
2022-08-19T20:30:13.879Z,43.50
2022-08-19T20:36:21.086Z,40.47
2022-08-19T20:42:23.016Z,43.17
2022-08-19T20:48:24.907Z,41.50
2022-08-19T20:54:27.473Z,43.92
2022-08-19T21:00:30.586Z,43.95
2022-08-19T21:06:32.326Z,37.72
2022-08-19T21:12:34.134Z,43.10
2022-08-19T21:18:36.048Z,39.85
2022-08-19T21:24:38.105Z,37.40
2022-08-19T21:30:41.510Z,37.45
2022-08-19T21:36:43.375Z,34.35
2022-08-19T21:42:46.127Z,38.47
2022-08-19T21:48:48.657Z,33.92
2022-08-19T21:54:50.549Z,36.60
2022-08-19T22:00:52.397Z,32.92
2022-08-19T22:06:54.227Z,34.70
2022-08-19T22:12:56.705Z,35.05
2022-08-19T22:18:59.482Z,33.58
2022-08-19T22:25:30.048Z,31.55
2022-08-19T22:31:33.883Z,33.15
2022-08-19T22:37:35.630Z,29.75
2022-08-19T22:43:37.590Z,29.60
2022-08-19T22:49:39.351Z,30.48
2022-08-19T22:55:41.061Z,29.73
2022-08-19T23:01:42.894Z,26.23
2022-08-19T23:07:44.724Z,32.28
2022-08-19T23:13:54.242Z,24.70
2022-08-19T23:19:55.946Z,28.50
2022-08-19T23:25:57.721Z,30.10
2022-08-19T23:31:59.391Z,25.90
2022-08-19T23:38:03.899Z,26.13
2022-08-19T23:44:06.684Z,28.95
2022-08-19T23:50:16.803Z,28.88
2022-08-19T23:56:18.526Z,25.25
